This is the latest recevied weather packets stored in our database for station/object KD8FRE. If no packets are shown the sender has not sent any weather packets the latest 1 day(s).
| Time | Temp. | Humidity | Pressure | Rain* | Wind** | Luminosity | Snow |
|---|---|---|---|---|---|---|---|
| 1778019276 | 11.67° C | 49% | 1008.1 hPa | 0 mm | 0.89 m/s, 293° | 63 W/m² | - |
| 1778018973 | 11.67° C | 47% | 1008 hPa | 0 mm | 2.24 m/s, 277° | 62 W/m² | - |
| 1778018670 | 11.67° C | 47% | 1007.9 hPa | 0 mm | 2.68 m/s, 262° | 71 W/m² | - |
| 1778018368 | 11.67° C | 48% | 1008.1 hPa | 0 mm | 2.68 m/s, 300° | 83 W/m² | - |
| 1778018066 | 11.67° C | 51% | 1007.7 hPa | 0 mm | 1.79 m/s, 281° | 68 W/m² | - |
| 1778017763 | 11.67° C | 49% | 1007.8 hPa | 0 mm | 1.79 m/s, 284° | 68 W/m² | - |
| 1778017461 | 11.67° C | 46% | 1008 hPa | 0 mm | 3.13 m/s, 300° | 61 W/m² | - |
| 1778017158 | 11.67° C | 49% | 1008.1 hPa | 0 mm | 2.24 m/s, 265° | 60 W/m² | - |
| 1778016856 | 11.67° C | 51% | 1008 hPa | 0 mm | 2.24 m/s, 276° | 69 W/m² | - |
| 1778016551 | 11.67° C | 49% | 1008 hPa | 0 mm | 2.24 m/s, 293° | 67 W/m² | - |
| 1778016248 | 11.67° C | 49% | 1007.8 hPa | 0 mm | 2.24 m/s, 275° | 70 W/m² | - |
| 1778015945 | 11.67° C | 48% | 1007.9 hPa | 0 mm | 2.68 m/s, 286° | 62 W/m² | - |
| 1778015643 | 11.67° C | 49% | 1008 hPa | 0 mm | 1.34 m/s, 291° | 63 W/m² | - |
| 1778015338 | 11.67° C | 48% | 1008.1 hPa | 0 mm | 2.68 m/s, 270° | 77 W/m² | - |
| 1778015036 | 11.67° C | 50% | 1008.1 hPa | 0 mm | 1.79 m/s, 253° | 74 W/m² | - |
| 1778014732 | 11.67° C | 52% | 1008.1 hPa | 0 mm | 3.13 m/s, 269° | 82 W/m² | - |
| 1778014431 | 11.67° C | 59% | 1008 hPa | 0 mm | 1.79 m/s, 263° | 64 W/m² | - |
| 1778014127 | 11.67° C | 61% | 1008 hPa | 0 mm | 2.24 m/s, 242° | 64 W/m² | - |
| 1778013825 | 11.67° C | 60% | 1007.9 hPa | 0 mm | 2.68 m/s, 274° | 63 W/m² | - |
| 1778013522 | 11.67° C | 60% | 1008 hPa | 0 mm | 3.13 m/s, 311° | 61 W/m² | - |
| 1778013218 | 11.67° C | 61% | 1007.8 hPa | 0 mm | 2.68 m/s, 236° | 60 W/m² | - |
| 1778012915 | 11.67° C | 61% | 1007.9 hPa | 0 mm | 2.24 m/s, 251° | 57 W/m² | - |
| 1778012611 | 11.67° C | 60% | 1007.8 hPa | 0 mm | 2.24 m/s, 274° | 61 W/m² | - |
| 1778012308 | 12.22° C | 60% | 1007.9 hPa | 0 mm | 4.02 m/s, 281° | 57 W/m² | - |
| 1778012006 | 12.22° C | 61% | 1007.9 hPa | 0 mm | 3.13 m/s, 273° | 80 W/m² | - |
* Rain latest hour (hover to see other rain measurements)
** Current wind speed in m/s (hover to see current wind gust speed)